sensor_id;sensor_type;location;lat;lon;timestamp;P1;durP1;ratioP1;P2;durP2;ratioP2
5869;SDS011;2961;47.702;9.410;2022-11-15T00:01:11;8.07;;;6.30;;
5869;SDS011;2961;47.702;9.410;2022-11-15T00:03:41;7.27;;;6.57;;
5869;SDS011;2961;47.702;9.410;2022-11-15T00:06:10;12.90;;;6.53;;
5869;SDS011;2961;47.702;9.410;2022-11-15T00:08:37;17.57;;;8.27;;
5869;SDS011;2961;47.702;9.410;2022-11-15T00:11:03;14.33;;;7.90;;
5869;SDS011;2961;47.702;9.410;2022-11-15T00:13:30;13.10;;;7.43;;
5869;SDS011;2961;47.702;9.410;2022-11-15T00:15:57;8.03;;;5.67;;
5869;SDS011;2961;47.702;9.410;2022-11-15T00:18:25;10.60;;;6.70;;
5869;SDS011;2961;47.702;9.410;2022-11-15T00:20:52;7.23;;;6.33;;
5869;SDS011;2961;47.702;9.410;2022-11-15T00:23:20;7.70;;;5.40;;
5869;SDS011;2961;47.702;9.410;2022-11-15T00:25:51;10.90;;;6.00;;
5869;SDS011;2961;47.702;9.410;2022-11-15T00:28:22;6.30;;;5.60;;
5869;SDS011;2961;47.702;9.410;2022-11-15T00:30:49;7.37;;;6.30;;
5869;SDS011;2961;47.702;9.410;2022-11-15T00:33:16;8.00;;;5.30;;
5869;SDS011;2961;47.702;9.410;2022-11-15T00:35:43;6.40;;;4.33;;
5869;SDS011;2961;47.702;9.410;2022-11-15T00:38:10;7.60;;;6.33;;
5869;SDS011;2961;47.702;9.410;2022-11-15T00:40:38;9.63;;;5.87;;
5869;SDS011;2961;47.702;9.410;2022-11-15T00:43:04;8.47;;;5.47;;
5869;SDS011;2961;47.702;9.410;2022-11-15T00:45:31;6.53;;;5.70;;
5869;SDS011;2961;47.702;9.410;2022-11-15T00:47:59;9.77;;;6.67;;
5869;SDS011;2961;47.702;9.410;2022-11-15T00:50:26;10.07;;;6.83;;
5869;SDS011;2961;47.702;9.410;2022-11-15T00:52:53;9.90;;;6.70;;
5869;SDS011;2961;47.702;9.410;2022-11-15T00:55:19;9.83;;;6.77;;
5869;SDS011;2961;47.702;9.410;2022-11-15T00:57:47;12.10;;;7.33;;
5869;SDS011;2961;47.702;9.410;2022-11-15T01:00:14;14.83;;;7.27;;
5869;SDS011;2961;47.702;9.410;2022-11-15T01:02:41;6.70;;;6.10;;
5869;SDS011;2961;47.702;9.410;2022-11-15T01:05:08;10.07;;;6.30;;
5869;SDS011;2961;47.702;9.410;2022-11-15T01:07:35;7.70;;;5.90;;
5869;SDS011;2961;47.702;9.410;2022-11-15T01:10:02;8.63;;;6.00;;
5869;SDS011;2961;47.702;9.410;2022-11-15T01:12:30;6.47;;;5.13;;
5869;SDS011;2961;47.702;9.410;2022-11-15T01:14:59;5.80;;;4.57;;
5869;SDS011;2961;47.702;9.410;2022-11-15T01:17:26;7.40;;;5.40;;
5869;SDS011;2961;47.702;9.410;2022-11-15T01:19:53;5.00;;;4.60;;
5869;SDS011;2961;47.702;9.410;2022-11-15T01:22:20;7.00;;;4.90;;
5869;SDS011;2961;47.702;9.410;2022-11-15T01:24:46;7.07;;;4.53;;
5869;SDS011;2961;47.702;9.410;2022-11-15T01:27:15;11.00;;;5.07;;
5869;SDS011;2961;47.702;9.410;2022-11-15T01:29:41;7.53;;;6.00;;
5869;SDS011;2961;47.702;9.410;2022-11-15T01:32:10;7.90;;;5.57;;
5869;SDS011;2961;47.702;9.410;2022-11-15T01:34:36;8.93;;;5.57;;
5869;SDS011;2961;47.702;9.410;2022-11-15T01:37:03;6.30;;;5.70;;
5869;SDS011;2961;47.702;9.410;2022-11-15T01:39:30;8.60;;;6.07;;
5869;SDS011;2961;47.702;9.410;2022-11-15T01:41:57;8.10;;;6.50;;
5869;SDS011;2961;47.702;9.410;2022-11-15T01:44:38;6.10;;;5.60;;
5869;SDS011;2961;47.702;9.410;2022-11-15T01:47:07;8.33;;;5.83;;
5869;SDS011;2961;47.702;9.410;2022-11-15T01:49:39;17.40;;;8.20;;
5869;SDS011;2961;47.702;9.410;2022-11-15T01:52:12;31.17;;;11.27;;
5869;SDS011;2961;47.702;9.410;2022-11-15T01:54:42;36.00;;;12.20;;
5869;SDS011;2961;47.702;9.410;2022-11-15T01:57:10;19.47;;;9.30;;
5869;SDS011;2961;47.702;9.410;2022-11-15T01:59:39;11.07;;;6.90;;
5869;SDS011;2961;47.702;9.410;2022-11-15T02:02:08;10.70;;;6.80;;
5869;SDS011;2961;47.702;9.410;2022-11-15T02:04:37;8.60;;;5.60;;
5869;SDS011;2961;47.702;9.410;2022-11-15T02:07:07;9.57;;;5.47;;
5869;SDS011;2961;47.702;9.410;2022-11-15T02:09:37;12.80;;;6.30;;
5869;SDS011;2961;47.702;9.410;2022-11-15T02:12:04;8.77;;;5.53;;
5869;SDS011;2961;47.702;9.410;2022-11-15T02:14:33;5.77;;;5.03;;
5869;SDS011;2961;47.702;9.410;2022-11-15T02:17:02;6.00;;;5.40;;
5869;SDS011;2961;47.702;9.410;2022-11-15T02:22:45;6.23;;;5.27;;
5869;SDS011;2961;47.702;9.410;2022-11-15T02:25:24;6.83;;;5.27;;
5869;SDS011;2961;47.702;9.410;2022-11-15T02:28:10;7.43;;;5.60;;
5869;SDS011;2961;47.702;9.410;2022-11-15T02:30:56;8.43;;;5.87;;
5869;SDS011;2961;47.702;9.410;2022-11-15T02:33:32;8.23;;;5.87;;
5869;SDS011;2961;47.702;9.410;2022-11-15T02:36:02;7.03;;;5.50;;
5869;SDS011;2961;47.702;9.410;2022-11-15T02:38:37;7.80;;;4.73;;
5869;SDS011;2961;47.702;9.410;2022-11-15T02:41:10;9.60;;;6.07;;
5869;SDS011;2961;47.702;9.410;2022-11-15T02:43:40;9.10;;;5.60;;
5869;SDS011;2961;47.702;9.410;2022-11-15T02:46:27;7.50;;;5.83;;
5869;SDS011;2961;47.702;9.410;2022-11-15T02:49:16;15.93;;;6.97;;
5869;SDS011;2961;47.702;9.410;2022-11-15T02:51:45;7.80;;;5.43;;
5869;SDS011;2961;47.702;9.410;2022-11-15T02:54:15;38.73;;;12.60;;
5869;SDS011;2961;47.702;9.410;2022-11-15T02:56:46;53.53;;;16.33;;
5869;SDS011;2961;47.702;9.410;2022-11-15T02:59:18;25.77;;;10.43;;
5869;SDS011;2961;47.702;9.410;2022-11-15T03:02:02;14.83;;;7.77;;
5869;SDS011;2961;47.702;9.410;2022-11-15T03:04:41;10.30;;;7.10;;
5869;SDS011;2961;47.702;9.410;2022-11-15T03:07:13;9.63;;;6.30;;
5869;SDS011;2961;47.702;9.410;2022-11-15T03:09:46;6.60;;;5.73;;
5869;SDS011;2961;47.702;9.410;2022-11-15T03:12:23;11.53;;;6.47;;
5869;SDS011;2961;47.702;9.410;2022-11-15T03:14:54;10.00;;;6.00;;
5869;SDS011;2961;47.702;9.410;2022-11-15T03:17:29;8.17;;;6.00;;
5869;SDS011;2961;47.702;9.410;2022-11-15T03:20:01;10.20;;;6.73;;
5869;SDS011;2961;47.702;9.410;2022-11-15T03:22:33;9.60;;;7.07;;
5869;SDS011;2961;47.702;9.410;2022-11-15T03:25:04;15.10;;;6.57;;
5869;SDS011;2961;47.702;9.410;2022-11-15T03:27:35;18.50;;;8.80;;
5869;SDS011;2961;47.702;9.410;2022-11-15T03:30:07;12.90;;;7.63;;
5869;SDS011;2961;47.702;9.410;2022-11-15T03:32:36;25.97;;;10.10;;
5869;SDS011;2961;47.702;9.410;2022-11-15T03:35:09;20.87;;;9.70;;
5869;SDS011;2961;47.702;9.410;2022-11-15T03:37:40;21.10;;;9.47;;
5869;SDS011;2961;47.702;9.410;2022-11-15T03:40:11;18.23;;;8.40;;
5869;SDS011;2961;47.702;9.410;2022-11-15T03:42:41;16.67;;;8.00;;
5869;SDS011;2961;47.702;9.410;2022-11-15T03:45:13;16.37;;;8.70;;
5869;SDS011;2961;47.702;9.410;2022-11-15T03:47:46;13.60;;;8.20;;
5869;SDS011;2961;47.702;9.410;2022-11-15T03:50:18;14.10;;;7.00;;
5869;SDS011;2961;47.702;9.410;2022-11-15T03:52:46;11.60;;;5.80;;
5869;SDS011;2961;47.702;9.410;2022-11-15T03:55:15;6.50;;;5.80;;
5869;SDS011;2961;47.702;9.410;2022-11-15T03:57:43;8.33;;;5.20;;
5869;SDS011;2961;47.702;9.410;2022-11-15T04:00:10;15.90;;;6.50;;
5869;SDS011;2961;47.702;9.410;2022-11-15T04:02:38;13.33;;;5.90;;
5869;SDS011;2961;47.702;9.410;2022-11-15T04:05:06;11.40;;;6.00;;
5869;SDS011;2961;47.702;9.410;2022-11-15T04:07:33;16.53;;;6.10;;
5869;SDS011;2961;47.702;9.410;2022-11-15T04:10:00;6.20;;;5.60;;
5869;SDS011;2961;47.702;9.410;2022-11-15T04:12:30;8.57;;;5.80;;
5869;SDS011;2961;47.702;9.410;2022-11-15T04:14:58;11.80;;;6.50;;
5869;SDS011;2961;47.702;9.410;2022-11-15T04:17:39;5.53;;;5.03;;
5869;SDS011;2961;47.702;9.410;2022-11-15T04:20:09;7.27;;;4.90;;
5869;SDS011;2961;47.702;9.410;2022-11-15T04:22:56;8.53;;;5.50;;
5869;SDS011;2961;47.702;9.410;2022-11-15T04:25:41;7.63;;;4.90;;
5869;SDS011;2961;47.702;9.410;2022-11-15T04:28:08;7.87;;;5.37;;
5869;SDS011;2961;47.702;9.410;2022-11-15T04:30:35;6.73;;;5.50;;
5869;SDS011;2961;47.702;9.410;2022-11-15T04:33:02;6.07;;;5.47;;
5869;SDS011;2961;47.702;9.410;2022-11-15T04:35:30;5.23;;;4.73;;
5869;SDS011;2961;47.702;9.410;2022-11-15T04:37:58;6.43;;;5.30;;
5869;SDS011;2961;47.702;9.410;2022-11-15T04:40:25;5.10;;;4.60;;
5869;SDS011;2961;47.702;9.410;2022-11-15T04:42:52;8.03;;;5.03;;
5869;SDS011;2961;47.702;9.410;2022-11-15T04:45:18;6.87;;;4.70;;
5869;SDS011;2961;47.702;9.410;2022-11-15T04:47:45;5.70;;;5.10;;
5869;SDS011;2961;47.702;9.410;2022-11-15T04:50:13;8.73;;;5.97;;
5869;SDS011;2961;47.702;9.410;2022-11-15T04:52:42;6.90;;;5.73;;
5869;SDS011;2961;47.702;9.410;2022-11-15T04:55:15;8.07;;;6.00;;
5869;SDS011;2961;47.702;9.410;2022-11-15T04:57:42;13.20;;;5.60;;
5869;SDS011;2961;47.702;9.410;2022-11-15T05:00:10;7.70;;;5.40;;
5869;SDS011;2961;47.702;9.410;2022-11-15T05:02:38;8.30;;;6.00;;
5869;SDS011;2961;47.702;9.410;2022-11-15T05:05:23;7.03;;;6.30;;
5869;SDS011;2961;47.702;9.410;2022-11-15T05:07:51;15.23;;;7.70;;
5869;SDS011;2961;47.702;9.410;2022-11-15T05:10:18;11.23;;;7.40;;
5869;SDS011;2961;47.702;9.410;2022-11-15T05:12:46;11.83;;;7.90;;
5869;SDS011;2961;47.702;9.410;2022-11-15T05:15:13;13.37;;;8.87;;
5869;SDS011;2961;47.702;9.410;2022-11-15T05:17:40;14.13;;;9.00;;
5869;SDS011;2961;47.702;9.410;2022-11-15T05:20:07;14.73;;;10.23;;
5869;SDS011;2961;47.702;9.410;2022-11-15T05:22:34;15.10;;;9.77;;
5869;SDS011;2961;47.702;9.410;2022-11-15T05:25:03;15.80;;;10.60;;
5869;SDS011;2961;47.702;9.410;2022-11-15T05:27:30;20.77;;;12.00;;
5869;SDS011;2961;47.702;9.410;2022-11-15T05:29:57;23.07;;;12.60;;
5869;SDS011;2961;47.702;9.410;2022-11-15T05:32:24;23.80;;;12.90;;
5869;SDS011;2961;47.702;9.410;2022-11-15T05:34:51;35.67;;;15.70;;
5869;SDS011;2961;47.702;9.410;2022-11-15T05:37:18;35.50;;;17.20;;
5869;SDS011;2961;47.702;9.410;2022-11-15T05:39:44;34.00;;;15.73;;
5869;SDS011;2961;47.702;9.410;2022-11-15T05:42:13;42.67;;;17.90;;
5869;SDS011;2961;47.702;9.410;2022-11-15T05:44:41;100.07;;;19.97;;
5869;SDS011;2961;47.702;9.410;2022-11-15T05:47:12;54.73;;;21.77;;
5869;SDS011;2961;47.702;9.410;2022-11-15T05:49:43;88.23;;;24.90;;
5869;SDS011;2961;47.702;9.410;2022-11-15T05:52:11;43.00;;;19.83;;
5869;SDS011;2961;47.702;9.410;2022-11-15T05:54:42;55.67;;;20.27;;
5869;SDS011;2961;47.702;9.410;2022-11-15T05:57:10;40.43;;;19.10;;
5869;SDS011;2961;47.702;9.410;2022-11-15T05:59:38;49.37;;;18.00;;
5869;SDS011;2961;47.702;9.410;2022-11-15T06:02:06;38.43;;;16.57;;
5869;SDS011;2961;47.702;9.410;2022-11-15T06:04:32;64.40;;;19.57;;
5869;SDS011;2961;47.702;9.410;2022-11-15T06:06:59;27.90;;;16.40;;
5869;SDS011;2961;47.702;9.410;2022-11-15T06:09:26;70.90;;;19.40;;
5869;SDS011;2961;47.702;9.410;2022-11-15T06:11:53;38.80;;;15.77;;
5869;SDS011;2961;47.702;9.410;2022-11-15T06:14:19;29.73;;;15.40;;
5869;SDS011;2961;47.702;9.410;2022-11-15T06:16:48;33.70;;;14.77;;
5869;SDS011;2961;47.702;9.410;2022-11-15T06:19:14;50.75;;;19.25;;
5869;SDS011;2961;47.702;9.410;2022-11-15T06:21:41;98.05;;;27.45;;
5869;SDS011;2961;47.702;9.410;2022-11-15T06:24:08;72.80;;;27.17;;
5869;SDS011;2961;47.702;9.410;2022-11-15T06:26:35;49.43;;;19.57;;
5869;SDS011;2961;47.702;9.410;2022-11-15T06:29:02;30.10;;;16.87;;
5869;SDS011;2961;47.702;9.410;2022-11-15T06:31:29;45.33;;;16.73;;
5869;SDS011;2961;47.702;9.410;2022-11-15T06:33:57;31.33;;;15.93;;
5869;SDS011;2961;47.702;9.410;2022-11-15T06:36:24;45.57;;;17.20;;
5869;SDS011;2961;47.702;9.410;2022-11-15T06:38:51;54.07;;;17.17;;
5869;SDS011;2961;47.702;9.410;2022-11-15T06:41:17;39.87;;;18.43;;
5869;SDS011;2961;47.702;9.410;2022-11-15T06:43:46;34.90;;;18.93;;
5869;SDS011;2961;47.702;9.410;2022-11-15T06:46:12;47.33;;;20.73;;
5869;SDS011;2961;47.702;9.410;2022-11-15T06:48:39;48.63;;;21.40;;
5869;SDS011;2961;47.702;9.410;2022-11-15T06:51:07;60.67;;;21.07;;
5869;SDS011;2961;47.702;9.410;2022-11-15T06:53:34;74.40;;;22.10;;
5869;SDS011;2961;47.702;9.410;2022-11-15T06:56:01;46.20;;;20.60;;
5869;SDS011;2961;47.702;9.410;2022-11-15T06:58:29;53.97;;;21.27;;
5869;SDS011;2961;47.702;9.410;2022-11-15T07:01:00;42.50;;;19.30;;
5869;SDS011;2961;47.702;9.410;2022-11-15T07:03:27;52.03;;;19.93;;
5869;SDS011;2961;47.702;9.410;2022-11-15T07:05:54;66.17;;;21.53;;
5869;SDS011;2961;47.702;9.410;2022-11-15T07:08:23;32.40;;;17.73;;
5869;SDS011;2961;47.702;9.410;2022-11-15T07:10:53;93.13;;;21.27;;
5869;SDS011;2961;47.702;9.410;2022-11-15T07:13:20;82.60;;;19.90;;
5869;SDS011;2961;47.702;9.410;2022-11-15T07:15:50;81.37;;;21.67;;
5869;SDS011;2961;47.702;9.410;2022-11-15T07:18:17;81.63;;;22.83;;
5869;SDS011;2961;47.702;9.410;2022-11-15T07:20:44;66.07;;;19.50;;
5869;SDS011;2961;47.702;9.410;2022-11-15T07:23:10;72.63;;;21.70;;
5869;SDS011;2961;47.702;9.410;2022-11-15T07:25:39;36.40;;;17.60;;
5869;SDS011;2961;47.702;9.410;2022-11-15T07:28:06;44.50;;;18.20;;
5869;SDS011;2961;47.702;9.410;2022-11-15T07:30:33;31.60;;;16.30;;
5869;SDS011;2961;47.702;9.410;2022-11-15T07:33:00;40.63;;;20.03;;
5869;SDS011;2961;47.702;9.410;2022-11-15T07:35:27;34.47;;;19.87;;
5869;SDS011;2961;47.702;9.410;2022-11-15T07:37:55;41.00;;;20.50;;
5869;SDS011;2961;47.702;9.410;2022-11-15T07:40:23;51.70;;;19.87;;
5869;SDS011;2961;47.702;9.410;2022-11-15T07:42:52;36.33;;;18.57;;
5869;SDS011;2961;47.702;9.410;2022-11-15T07:45:18;33.80;;;17.93;;
5869;SDS011;2961;47.702;9.410;2022-11-15T07:47:45;30.03;;;18.27;;
5869;SDS011;2961;47.702;9.410;2022-11-15T07:50:12;30.53;;;17.53;;
5869;SDS011;2961;47.702;9.410;2022-11-15T07:52:39;72.43;;;24.90;;
5869;SDS011;2961;47.702;9.410;2022-11-15T07:55:06;31.17;;;17.67;;
5869;SDS011;2961;47.702;9.410;2022-11-15T07:57:34;47.93;;;19.03;;
5869;SDS011;2961;47.702;9.410;2022-11-15T08:00:03;28.87;;;16.90;;
5869;SDS011;2961;47.702;9.410;2022-11-15T08:02:31;40.33;;;18.70;;
5869;SDS011;2961;47.702;9.410;2022-11-15T08:04:58;44.60;;;20.50;;
5869;SDS011;2961;47.702;9.410;2022-11-15T08:07:27;44.77;;;18.00;;
5869;SDS011;2961;47.702;9.410;2022-11-15T08:09:54;36.73;;;17.57;;
5869;SDS011;2961;47.702;9.410;2022-11-15T08:12:21;66.50;;;19.33;;
5869;SDS011;2961;47.702;9.410;2022-11-15T08:14:48;65.97;;;19.10;;
5869;SDS011;2961;47.702;9.410;2022-11-15T08:17:17;100.57;;;20.53;;
5869;SDS011;2961;47.702;9.410;2022-11-15T08:19:43;25.50;;;17.43;;
5869;SDS011;2961;47.702;9.410;2022-11-15T08:22:10;42.93;;;16.47;;
5869;SDS011;2961;47.702;9.410;2022-11-15T08:24:37;45.33;;;17.13;;
5869;SDS011;2961;47.702;9.410;2022-11-15T08:27:04;64.33;;;18.53;;
5869;SDS011;2961;47.702;9.410;2022-11-15T08:29:39;42.90;;;14.90;;
5869;SDS011;2961;47.702;9.410;2022-11-15T08:32:07;40.83;;;16.13;;
5869;SDS011;2961;47.702;9.410;2022-11-15T08:34:35;39.83;;;16.40;;
5869;SDS011;2961;47.702;9.410;2022-11-15T08:37:03;49.67;;;17.07;;
5869;SDS011;2961;47.702;9.410;2022-11-15T08:39:30;24.90;;;15.13;;
5869;SDS011;2961;47.702;9.410;2022-11-15T08:41:57;43.27;;;20.10;;
5869;SDS011;2961;47.702;9.410;2022-11-15T08:44:24;85.63;;;21.07;;
5869;SDS011;2961;47.702;9.410;2022-11-15T08:46:50;109.77;;;28.57;;
5869;SDS011;2961;47.702;9.410;2022-11-15T08:49:17;34.33;;;20.20;;
5869;SDS011;2961;47.702;9.410;2022-11-15T08:51:45;169.57;;;68.23;;
5869;SDS011;2961;47.702;9.410;2022-11-15T08:54:12;57.23;;;19.30;;
5869;SDS011;2961;47.702;9.410;2022-11-15T08:56:39;47.53;;;18.43;;
5869;SDS011;2961;47.702;9.410;2022-11-15T08:59:06;45.13;;;25.93;;
5869;SDS011;2961;47.702;9.410;2022-11-15T09:01:32;52.67;;;24.93;;
5869;SDS011;2961;47.702;9.410;2022-11-15T09:03:59;33.60;;;16.10;;
5869;SDS011;2961;47.702;9.410;2022-11-15T09:06:26;34.10;;;16.20;;
5869;SDS011;2961;47.702;9.410;2022-11-15T09:08:54;23.60;;;15.73;;
5869;SDS011;2961;47.702;9.410;2022-11-15T09:11:21;30.90;;;16.60;;
5869;SDS011;2961;47.702;9.410;2022-11-15T09:13:48;26.00;;;16.30;;
5869;SDS011;2961;47.702;9.410;2022-11-15T09:16:15;27.67;;;15.33;;
5869;SDS011;2961;47.702;9.410;2022-11-15T09:18:42;20.80;;;15.03;;
5869;SDS011;2961;47.702;9.410;2022-11-15T09:21:09;33.03;;;17.27;;
5869;SDS011;2961;47.702;9.410;2022-11-15T09:23:36;29.80;;;16.40;;
5869;SDS011;2961;47.702;9.410;2022-11-15T09:26:04;22.60;;;15.43;;
5869;SDS011;2961;47.702;9.410;2022-11-15T09:28:32;28.23;;;16.43;;
5869;SDS011;2961;47.702;9.410;2022-11-15T09:30:59;21.87;;;15.17;;
5869;SDS011;2961;47.702;9.410;2022-11-15T09:33:28;29.10;;;16.67;;
5869;SDS011;2961;47.702;9.410;2022-11-15T09:35:59;21.43;;;16.67;;
5869;SDS011;2961;47.702;9.410;2022-11-15T09:38:26;22.80;;;15.67;;
5869;SDS011;2961;47.702;9.410;2022-11-15T09:40:56;33.53;;;15.87;;
5869;SDS011;2961;47.702;9.410;2022-11-15T09:43:37;42.03;;;17.60;;
5869;SDS011;2961;47.702;9.410;2022-11-15T09:46:13;39.90;;;18.13;;
5869;SDS011;2961;47.702;9.410;2022-11-15T09:48:48;35.70;;;16.60;;
5869;SDS011;2961;47.702;9.410;2022-11-15T09:51:20;20.83;;;14.47;;
5869;SDS011;2961;47.702;9.410;2022-11-15T09:53:54;33.60;;;12.87;;
5869;SDS011;2961;47.702;9.410;2022-11-15T09:56:25;40.93;;;19.27;;
5869;SDS011;2961;47.702;9.410;2022-11-15T09:58:57;56.90;;;28.07;;
5869;SDS011;2961;47.702;9.410;2022-11-15T10:01:35;112.53;;;29.83;;
5869;SDS011;2961;47.702;9.410;2022-11-15T10:04:08;68.20;;;26.53;;
5869;SDS011;2961;47.702;9.410;2022-11-15T10:06:36;67.63;;;23.83;;
5869;SDS011;2961;47.702;9.410;2022-11-15T10:09:11;67.57;;;23.67;;
5869;SDS011;2961;47.702;9.410;2022-11-15T10:11:41;46.23;;;20.90;;
5869;SDS011;2961;47.702;9.410;2022-11-15T10:14:11;40.33;;;16.20;;
5869;SDS011;2961;47.702;9.410;2022-11-15T10:19:47;35.57;;;17.63;;
5869;SDS011;2961;47.702;9.410;2022-11-15T10:22:24;32.17;;;21.17;;
5869;SDS011;2961;47.702;9.410;2022-11-15T10:24:59;34.20;;;16.93;;
5869;SDS011;2961;47.702;9.410;2022-11-15T10:27:36;30.53;;;16.17;;
5869;SDS011;2961;47.702;9.410;2022-11-15T10:30:09;53.20;;;16.90;;
5869;SDS011;2961;47.702;9.410;2022-11-15T10:32:38;40.47;;;19.87;;
5869;SDS011;2961;47.702;9.410;2022-11-15T10:35:15;44.87;;;26.83;;
5869;SDS011;2961;47.702;9.410;2022-11-15T10:37:47;40.20;;;20.57;;
5869;SDS011;2961;47.702;9.410;2022-11-15T10:40:15;102.93;;;46.90;;
5869;SDS011;2961;47.702;9.410;2022-11-15T10:42:44;44.50;;;24.87;;
5869;SDS011;2961;47.702;9.410;2022-11-15T10:45:23;37.60;;;19.30;;
5869;SDS011;2961;47.702;9.410;2022-11-15T10:47:52;32.43;;;19.57;;
5869;SDS011;2961;47.702;9.410;2022-11-15T10:50:29;31.77;;;19.90;;
5869;SDS011;2961;47.702;9.410;2022-11-15T10:52:57;116.77;;;32.00;;
5869;SDS011;2961;47.702;9.410;2022-11-15T10:55:27;56.47;;;28.70;;
5869;SDS011;2961;47.702;9.410;2022-11-15T10:58:04;72.33;;;37.90;;
5869;SDS011;2961;47.702;9.410;2022-11-15T11:00:46;54.50;;;31.30;;
5869;SDS011;2961;47.702;9.410;2022-11-15T11:03:23;35.03;;;21.50;;
5869;SDS011;2961;47.702;9.410;2022-11-15T11:06:03;26.77;;;18.13;;
5869;SDS011;2961;47.702;9.410;2022-11-15T11:08:32;38.30;;;25.30;;
5869;SDS011;2961;47.702;9.410;2022-11-15T11:10:59;31.30;;;19.60;;
5869;SDS011;2961;47.702;9.410;2022-11-15T11:13:27;30.13;;;20.97;;
5869;SDS011;2961;47.702;9.410;2022-11-15T11:15:58;31.83;;;19.07;;
5869;SDS011;2961;47.702;9.410;2022-11-15T11:18:42;26.97;;;18.63;;
5869;SDS011;2961;47.702;9.410;2022-11-15T11:21:18;29.48;;;22.33;;
5869;SDS011;2961;47.702;9.410;2022-11-15T11:23:53;29.13;;;19.83;;
5869;SDS011;2961;47.702;9.410;2022-11-15T11:26:35;29.60;;;19.00;;
5869;SDS011;2961;47.702;9.410;2022-11-15T11:29:11;27.42;;;20.45;;
5869;SDS011;2961;47.702;9.410;2022-11-15T11:31:50;26.40;;;19.07;;
5869;SDS011;2961;47.702;9.410;2022-11-15T11:34:29;22.50;;;16.37;;
5869;SDS011;2961;47.702;9.410;2022-11-15T11:37:09;22.03;;;15.87;;
5869;SDS011;2961;47.702;9.410;2022-11-15T11:39:43;23.83;;;15.30;;
5869;SDS011;2961;47.702;9.410;2022-11-15T11:42:25;25.97;;;15.70;;
5869;SDS011;2961;47.702;9.410;2022-11-15T11:45:00;22.93;;;16.30;;
5869;SDS011;2961;47.702;9.410;2022-11-15T11:47:43;22.50;;;17.10;;
5869;SDS011;2961;47.702;9.410;2022-11-15T11:50:14;25.87;;;18.63;;
5869;SDS011;2961;47.702;9.410;2022-11-15T11:52:52;26.43;;;18.10;;
5869;SDS011;2961;47.702;9.410;2022-11-15T11:55:24;22.57;;;16.97;;
5869;SDS011;2961;47.702;9.410;2022-11-15T11:57:58;22.77;;;18.27;;
5869;SDS011;2961;47.702;9.410;2022-11-15T12:00:31;29.03;;;18.33;;
5869;SDS011;2961;47.702;9.410;2022-11-15T12:03:07;26.10;;;17.57;;
5869;SDS011;2961;47.702;9.410;2022-11-15T12:05:39;27.33;;;16.47;;
5869;SDS011;2961;47.702;9.410;2022-11-15T12:08:15;27.30;;;17.67;;
5869;SDS011;2961;47.702;9.410;2022-11-15T12:10:52;28.00;;;19.07;;
5869;SDS011;2961;47.702;9.410;2022-11-15T12:13:24;26.50;;;19.00;;
5869;SDS011;2961;47.702;9.410;2022-11-15T12:15:59;25.90;;;17.13;;
5869;SDS011;2961;47.702;9.410;2022-11-15T12:18:32;25.37;;;17.77;;
5869;SDS011;2961;47.702;9.410;2022-11-15T12:21:01;25.53;;;19.03;;
5869;SDS011;2961;47.702;9.410;2022-11-15T12:23:32;26.47;;;17.70;;
5869;SDS011;2961;47.702;9.410;2022-11-15T12:26:05;23.00;;;16.37;;
5869;SDS011;2961;47.702;9.410;2022-11-15T12:28:38;23.77;;;17.70;;
5869;SDS011;2961;47.702;9.410;2022-11-15T12:31:11;27.40;;;17.73;;
5869;SDS011;2961;47.702;9.410;2022-11-15T12:33:44;24.87;;;17.30;;
5869;SDS011;2961;47.702;9.410;2022-11-15T12:36:12;25.00;;;16.00;;
5869;SDS011;2961;47.702;9.410;2022-11-15T12:38:59;28.10;;;18.00;;
5869;SDS011;2961;47.702;9.410;2022-11-15T12:41:28;28.07;;;17.20;;
5869;SDS011;2961;47.702;9.410;2022-11-15T12:43:56;23.53;;;16.83;;
5869;SDS011;2961;47.702;9.410;2022-11-15T12:49:44;23.33;;;17.03;;
5869;SDS011;2961;47.702;9.410;2022-11-15T12:52:12;25.77;;;17.77;;
5869;SDS011;2961;47.702;9.410;2022-11-15T12:57:52;25.97;;;16.97;;
5869;SDS011;2961;47.702;9.410;2022-11-15T13:00:36;26.70;;;17.70;;
5869;SDS011;2961;47.702;9.410;2022-11-15T13:03:23;21.97;;;17.00;;
5869;SDS011;2961;47.702;9.410;2022-11-15T13:05:55;23.90;;;18.33;;
5869;SDS011;2961;47.702;9.410;2022-11-15T13:17:20;20.60;;;15.17;;
5869;SDS011;2961;47.702;9.410;2022-11-15T13:22:53;25.87;;;16.53;;
5869;SDS011;2961;47.702;9.410;2022-11-15T13:25:33;23.70;;;16.07;;
5869;SDS011;2961;47.702;9.410;2022-11-15T13:28:17;23.07;;;14.60;;
5869;SDS011;2961;47.702;9.410;2022-11-15T13:30:56;25.20;;;15.73;;
5869;SDS011;2961;47.702;9.410;2022-11-15T13:33:32;23.33;;;15.90;;
5869;SDS011;2961;47.702;9.410;2022-11-15T13:36:01;22.43;;;14.87;;
5869;SDS011;2961;47.702;9.410;2022-11-15T13:38:32;22.80;;;15.80;;
5869;SDS011;2961;47.702;9.410;2022-11-15T13:41:11;26.30;;;15.10;;
5869;SDS011;2961;47.702;9.410;2022-11-15T13:43:45;23.20;;;16.40;;
5869;SDS011;2961;47.702;9.410;2022-11-15T13:46:12;21.33;;;15.00;;
5869;SDS011;2961;47.702;9.410;2022-11-15T13:48:42;21.60;;;15.87;;
5869;SDS011;2961;47.702;9.410;2022-11-15T13:51:12;21.53;;;15.43;;
5869;SDS011;2961;47.702;9.410;2022-11-15T13:53:55;25.30;;;16.30;;
5869;SDS011;2961;47.702;9.410;2022-11-15T13:56:30;23.10;;;16.73;;
5869;SDS011;2961;47.702;9.410;2022-11-15T13:58:59;30.73;;;17.90;;
5869;SDS011;2961;47.702;9.410;2022-11-15T14:01:27;20.43;;;15.80;;
5869;SDS011;2961;47.702;9.410;2022-11-15T14:03:58;22.27;;;15.60;;
5869;SDS011;2961;47.702;9.410;2022-11-15T14:06:27;23.70;;;17.63;;
5869;SDS011;2961;47.702;9.410;2022-11-15T14:11:59;25.57;;;16.73;;
5869;SDS011;2961;47.702;9.410;2022-11-15T14:14:27;21.00;;;17.00;;
5869;SDS011;2961;47.702;9.410;2022-11-15T14:16:55;22.70;;;15.87;;
5869;SDS011;2961;47.702;9.410;2022-11-15T14:19:36;23.13;;;17.23;;
5869;SDS011;2961;47.702;9.410;2022-11-15T14:22:12;21.73;;;17.13;;
5869;SDS011;2961;47.702;9.410;2022-11-15T14:24:42;22.10;;;16.77;;
5869;SDS011;2961;47.702;9.410;2022-11-15T14:27:18;20.30;;;16.07;;
5869;SDS011;2961;47.702;9.410;2022-11-15T14:29:49;26.33;;;16.60;;
5869;SDS011;2961;47.702;9.410;2022-11-15T14:32:17;22.50;;;16.90;;
5869;SDS011;2961;47.702;9.410;2022-11-15T14:34:46;23.05;;;17.80;;
5869;SDS011;2961;47.702;9.410;2022-11-15T14:37:16;19.57;;;15.67;;
5869;SDS011;2961;47.702;9.410;2022-11-15T14:39:48;22.87;;;15.63;;
5869;SDS011;2961;47.702;9.410;2022-11-15T14:42:15;24.23;;;18.17;;
5869;SDS011;2961;47.702;9.410;2022-11-15T14:44:42;20.43;;;17.00;;
5869;SDS011;2961;47.702;9.410;2022-11-15T14:47:09;20.90;;;16.13;;
5869;SDS011;2961;47.702;9.410;2022-11-15T14:49:36;24.77;;;17.00;;
5869;SDS011;2961;47.702;9.410;2022-11-15T14:52:04;26.60;;;17.03;;
5869;SDS011;2961;47.702;9.410;2022-11-15T14:54:50;23.17;;;16.50;;
5869;SDS011;2961;47.702;9.410;2022-11-15T14:57:17;22.90;;;15.23;;
5869;SDS011;2961;47.702;9.410;2022-11-15T14:59:44;22.60;;;16.70;;
5869;SDS011;2961;47.702;9.410;2022-11-15T15:02:13;23.00;;;16.10;;
5869;SDS011;2961;47.702;9.410;2022-11-15T15:04:44;19.93;;;15.40;;
5869;SDS011;2961;47.702;9.410;2022-11-15T15:07:10;19.00;;;16.07;;
5869;SDS011;2961;47.702;9.410;2022-11-15T15:09:37;23.27;;;16.80;;
5869;SDS011;2961;47.702;9.410;2022-11-15T15:12:08;24.20;;;15.37;;
5869;SDS011;2961;47.702;9.410;2022-11-15T15:14:41;17.60;;;14.40;;
5869;SDS011;2961;47.702;9.410;2022-11-15T15:17:08;20.07;;;14.23;;
5869;SDS011;2961;47.702;9.410;2022-11-15T15:19:35;19.70;;;15.60;;
5869;SDS011;2961;47.702;9.410;2022-11-15T15:22:02;20.73;;;15.50;;
5869;SDS011;2961;47.702;9.410;2022-11-15T15:24:29;23.60;;;14.17;;
5869;SDS011;2961;47.702;9.410;2022-11-15T15:26:56;16.23;;;11.83;;
5869;SDS011;2961;47.702;9.410;2022-11-15T15:29:24;20.07;;;11.33;;
5869;SDS011;2961;47.702;9.410;2022-11-15T15:31:50;15.60;;;9.93;;
5869;SDS011;2961;47.702;9.410;2022-11-15T15:34:17;14.00;;;9.70;;
5869;SDS011;2961;47.702;9.410;2022-11-15T15:36:44;11.40;;;8.70;;
5869;SDS011;2961;47.702;9.410;2022-11-15T15:39:11;12.90;;;7.90;;
5869;SDS011;2961;47.702;9.410;2022-11-15T15:41:38;8.57;;;6.30;;